createdAt,value
2023-05-09T00:01:19.972Z,58.40
2023-05-09T00:03:47.652Z,58.40
2023-05-09T00:06:15.383Z,58.40
2023-05-09T00:08:41.968Z,58.40
2023-05-09T00:11:08.717Z,58.40
2023-05-09T00:13:37.079Z,58.40
2023-05-09T00:16:04.264Z,58.40
2023-05-09T00:18:31.166Z,58.40
2023-05-09T00:20:59.095Z,58.40
2023-05-09T00:23:25.707Z,58.40
2023-05-09T00:25:52.505Z,58.30
2023-05-09T00:28:19.964Z,58.30
2023-05-09T00:30:46.600Z,58.30
2023-05-09T00:33:13.220Z,58.30
2023-05-09T00:35:40.153Z,58.30
2023-05-09T00:38:06.678Z,58.30
2023-05-09T00:40:33.437Z,58.30
2023-05-09T00:43:00.015Z,58.20
2023-05-09T00:45:26.676Z,58.20
2023-05-09T00:47:53.578Z,58.20
2023-05-09T00:50:20.829Z,58.20
2023-05-09T00:52:47.483Z,58.20
2023-05-09T00:55:15.208Z,58.20
2023-05-09T00:57:42.159Z,58.20
2023-05-09T01:00:15.586Z,58.20
2023-05-09T01:02:43.047Z,58.20
2023-05-09T01:05:10.083Z,58.20
2023-05-09T01:07:46.107Z,58.20
2023-05-09T01:10:31.519Z,58.20
2023-05-09T01:13:04.410Z,58.20
2023-05-09T01:15:39.404Z,58.20
2023-05-09T01:18:09.679Z,58.20
2023-05-09T01:20:39.004Z,58.30
2023-05-09T01:23:05.613Z,58.20
2023-05-09T01:25:51.954Z,58.20
2023-05-09T01:28:34.693Z,58.20
2023-05-09T01:31:02.602Z,58.20
2023-05-09T01:33:31.474Z,58.20
2023-05-09T01:35:59.798Z,58.20
2023-05-09T01:38:27.227Z,58.20
2023-05-09T01:40:55.292Z,58.20
2023-05-09T01:43:23.333Z,58.20
2023-05-09T01:45:51.341Z,58.20
2023-05-09T01:48:18.157Z,58.20
2023-05-09T01:50:45.783Z,58.20
2023-05-09T01:53:13.696Z,58.20
2023-05-09T01:55:41.143Z,58.20
2023-05-09T01:58:08.142Z,58.20
2023-05-09T02:00:35.412Z,58.20
2023-05-09T02:03:02.755Z,58.20
2023-05-09T02:05:30.649Z,58.20
2023-05-09T02:07:58.624Z,58.20
2023-05-09T02:10:26.654Z,58.10
2023-05-09T02:12:53.650Z,58.10
2023-05-09T02:15:21.041Z,58.00
2023-05-09T02:17:47.738Z,58.10
2023-05-09T02:20:14.490Z,58.10
2023-05-09T02:22:42.059Z,58.10
2023-05-09T02:25:09.259Z,58.10
2023-05-09T02:27:37.710Z,58.00
2023-05-09T02:30:07.343Z,58.10
2023-05-09T02:32:34.406Z,58.00
2023-05-09T02:35:01.532Z,58.00
2023-05-09T02:37:28.411Z,58.00
2023-05-09T02:39:55.544Z,58.00
2023-05-09T02:42:25.106Z,58.00
2023-05-09T02:44:55.456Z,58.00
2023-05-09T02:47:22.250Z,58.00
2023-05-09T02:49:48.880Z,58.00
2023-05-09T02:52:15.567Z,58.00
2023-05-09T02:54:42.139Z,58.00
2023-05-09T02:57:08.724Z,58.00
2023-05-09T02:59:35.384Z,58.00
2023-05-09T03:02:02.189Z,58.00
2023-05-09T03:04:28.745Z,58.00
2023-05-09T03:06:55.403Z,58.00
2023-05-09T03:09:22.084Z,58.10
2023-05-09T03:11:50.061Z,58.00
2023-05-09T03:14:16.621Z,58.00
2023-05-09T03:16:43.206Z,58.00
2023-05-09T03:19:10.013Z,58.00
2023-05-09T03:21:36.714Z,58.00
2023-05-09T03:24:04.704Z,58.00
2023-05-09T03:26:31.324Z,58.00
2023-05-09T03:28:57.904Z,58.00
2023-05-09T03:31:24.589Z,58.00
2023-05-09T03:33:51.280Z,58.00
2023-05-09T03:36:18.086Z,58.00
2023-05-09T03:38:44.635Z,58.00
2023-05-09T03:41:12.516Z,58.00
2023-05-09T03:43:39.283Z,58.00
2023-05-09T03:46:06.160Z,58.10
2023-05-09T03:48:32.765Z,58.00
2023-05-09T03:50:59.441Z,58.00
2023-05-09T03:53:26.044Z,58.00
2023-05-09T03:55:52.611Z,58.00
2023-05-09T03:58:19.492Z,58.00
2023-05-09T04:00:46.109Z,58.00
2023-05-09T04:03:12.706Z,58.00
2023-05-09T04:05:39.505Z,58.00
2023-05-09T04:08:06.133Z,58.00
2023-05-09T04:10:32.713Z,58.00
2023-05-09T04:12:59.351Z,58.00
2023-05-09T04:15:25.962Z,58.00
2023-05-09T04:17:52.711Z,58.00
2023-05-09T04:20:19.488Z,58.00
2023-05-09T04:22:47.009Z,58.00
2023-05-09T04:25:14.742Z,58.00
2023-05-09T04:27:41.516Z,58.00
2023-05-09T04:30:08.426Z,58.00
2023-05-09T04:32:35.747Z,58.00
2023-05-09T04:35:03.847Z,58.00
2023-05-09T04:37:32.612Z,58.00
2023-05-09T04:39:59.535Z,58.00
2023-05-09T04:42:26.297Z,57.90
2023-05-09T04:44:52.805Z,58.00
2023-05-09T04:47:19.312Z,58.00
2023-05-09T04:49:45.990Z,58.00
2023-05-09T04:52:12.614Z,58.00
2023-05-09T04:54:39.385Z,57.90
2023-05-09T04:57:17.429Z,58.00
2023-05-09T04:59:45.293Z,57.90
2023-05-09T05:02:12.948Z,57.90
2023-05-09T05:04:39.694Z,57.90
2023-05-09T05:07:06.335Z,57.90
2023-05-09T05:09:32.955Z,57.90
2023-05-09T05:12:02.892Z,57.90
2023-05-09T05:14:30.381Z,57.90
2023-05-09T05:16:57.037Z,57.90
2023-05-09T05:19:23.558Z,57.90
2023-05-09T05:21:50.219Z,57.90
2023-05-09T05:24:16.785Z,57.90
2023-05-09T05:26:43.575Z,57.90
2023-05-09T05:29:10.588Z,57.90
2023-05-09T05:31:37.317Z,57.90
2023-05-09T05:34:03.998Z,57.90
2023-05-09T05:36:32.122Z,57.90
2023-05-09T05:38:58.803Z,57.90
2023-05-09T05:41:26.314Z,57.80
2023-05-09T05:43:54.307Z,57.90
2023-05-09T05:46:21.281Z,57.90
2023-05-09T05:48:47.905Z,57.90
2023-05-09T05:51:14.496Z,57.90
2023-05-09T05:53:41.095Z,57.90
2023-05-09T05:56:07.805Z,57.90
2023-05-09T05:58:34.432Z,57.90
2023-05-09T06:01:02.054Z,57.90
2023-05-09T06:03:28.837Z,57.90
2023-05-09T06:05:56.437Z,57.90
2023-05-09T06:08:23.163Z,57.90
2023-05-09T06:10:52.604Z,57.90
2023-05-09T06:13:19.324Z,57.90
2023-05-09T06:15:45.977Z,57.90
2023-05-09T06:18:12.659Z,57.90
2023-05-09T06:20:39.298Z,57.90
2023-05-09T06:23:05.987Z,57.90
2023-05-09T06:25:32.598Z,57.90
2023-05-09T06:27:59.543Z,57.90
2023-05-09T06:30:26.976Z,57.90
2023-05-09T06:32:54.400Z,57.90
2023-05-09T06:35:21.245Z,57.90
2023-05-09T06:37:48.763Z,57.90
2023-05-09T06:40:16.110Z,57.90
2023-05-09T06:42:42.767Z,57.90
2023-05-09T06:45:09.596Z,57.90
2023-05-09T06:47:36.261Z,57.80
2023-05-09T06:50:03.219Z,57.90
2023-05-09T06:52:29.844Z,57.90
2023-05-09T06:54:56.452Z,57.90
2023-05-09T06:57:23.302Z,57.90
2023-05-09T06:59:49.834Z,57.90
2023-05-09T07:02:16.500Z,57.90
2023-05-09T07:04:43.214Z,57.90
2023-05-09T07:07:09.803Z,57.90
2023-05-09T07:09:36.343Z,57.90
2023-05-09T07:12:03.181Z,57.90
2023-05-09T07:14:29.847Z,57.90
2023-05-09T07:17:05.207Z,57.90
2023-05-09T07:19:41.251Z,57.80
2023-05-09T07:22:07.920Z,57.90
2023-05-09T07:24:34.642Z,57.90
2023-05-09T07:27:04.075Z,57.90
2023-05-09T07:29:30.674Z,57.90
2023-05-09T07:31:57.428Z,57.90
2023-05-09T07:34:25.412Z,57.90
2023-05-09T07:36:52.131Z,57.90
2023-05-09T07:39:18.687Z,57.90
2023-05-09T07:41:46.415Z,57.90
2023-05-09T07:44:14.329Z,57.90
2023-05-09T07:46:41.970Z,57.90
2023-05-09T07:49:08.518Z,57.90
2023-05-09T07:51:35.142Z,58.00
2023-05-09T07:54:01.785Z,57.90
2023-05-09T07:56:28.433Z,57.90
2023-05-09T07:58:55.812Z,58.00
2023-05-09T08:01:22.575Z,57.90
2023-05-09T08:03:49.243Z,58.00
2023-05-09T08:06:15.902Z,58.00
2023-05-09T08:08:42.481Z,57.90
2023-05-09T08:11:09.094Z,58.00
2023-05-09T08:13:35.823Z,58.00
2023-05-09T08:16:02.892Z,58.00
2023-05-09T08:18:29.590Z,57.90
2023-05-09T08:20:56.192Z,57.90
2023-05-09T08:23:22.715Z,57.90
2023-05-09T08:25:52.496Z,57.90
2023-05-09T08:28:19.133Z,57.90
2023-05-09T08:30:45.732Z,58.00
2023-05-09T08:33:12.407Z,58.00
2023-05-09T08:35:39.099Z,57.90
2023-05-09T08:38:05.687Z,57.90
2023-05-09T08:40:35.705Z,57.90
2023-05-09T08:43:03.131Z,58.00
2023-05-09T08:45:30.404Z,58.00
2023-05-09T08:47:57.114Z,58.00
2023-05-09T08:50:23.739Z,58.00
2023-05-09T08:52:51.470Z,58.00
2023-05-09T08:55:18.528Z,58.00
2023-05-09T08:57:45.639Z,58.00
2023-05-09T09:00:14.173Z,58.00
2023-05-09T09:02:42.256Z,58.00
2023-05-09T09:05:19.684Z,58.00
2023-05-09T09:07:56.517Z,58.00
2023-05-09T09:10:25.737Z,58.10
2023-05-09T09:12:54.119Z,58.00
2023-05-09T09:15:22.325Z,58.00
2023-05-09T09:17:50.883Z,58.10
2023-05-09T09:20:18.517Z,58.10
2023-05-09T09:22:47.818Z,58.10
2023-05-09T09:25:14.531Z,58.00
2023-05-09T09:27:41.917Z,58.10
2023-05-09T09:30:09.452Z,58.10
2023-05-09T09:32:36.538Z,58.10
2023-05-09T09:35:10.686Z,58.10
2023-05-09T09:37:39.844Z,58.20
2023-05-09T09:40:10.746Z,58.10
2023-05-09T09:42:44.304Z,58.10
2023-05-09T09:45:12.488Z,58.10
2023-05-09T09:47:39.596Z,58.10
2023-05-09T09:50:13.086Z,58.10
2023-05-09T09:52:50.316Z,58.10
2023-05-09T09:55:20.736Z,58.10
2023-05-09T09:57:48.280Z,58.10
2023-05-09T10:00:27.959Z,58.10
2023-05-09T10:02:55.804Z,58.10
2023-05-09T10:05:26.721Z,58.20
2023-05-09T10:07:59.141Z,58.20
2023-05-09T10:10:30.031Z,58.20
2023-05-09T10:12:58.297Z,58.20
2023-05-09T10:15:25.728Z,58.20
2023-05-09T10:17:55.010Z,58.20
2023-05-09T10:20:22.044Z,58.20
2023-05-09T10:22:49.389Z,58.20
2023-05-09T10:25:19.467Z,58.20
2023-05-09T10:27:46.954Z,58.20
2023-05-09T10:30:18.300Z,58.20
2023-05-09T10:32:48.892Z,58.20
2023-05-09T10:35:17.371Z,58.20
2023-05-09T10:37:45.044Z,58.20
2023-05-09T10:40:15.407Z,58.20
2023-05-09T10:42:42.973Z,58.20
2023-05-09T10:45:10.371Z,58.20
2023-05-09T10:47:37.940Z,58.20
2023-05-09T10:50:04.959Z,58.20
2023-05-09T10:52:32.439Z,58.20
2023-05-09T10:55:01.078Z,58.20
2023-05-09T10:57:30.096Z,58.20
2023-05-09T10:59:57.296Z,58.20
2023-05-09T11:02:29.229Z,58.20
2023-05-09T11:05:22.742Z,58.20
2023-05-09T11:08:09.359Z,58.20
2023-05-09T11:10:42.137Z,58.20
2023-05-09T11:13:09.165Z,58.30
2023-05-09T11:15:36.430Z,58.30
2023-05-09T11:18:21.229Z,58.30
2023-05-09T11:20:48.918Z,58.40
2023-05-09T11:23:17.416Z,60.30
2023-05-09T11:25:46.250Z,59.40
2023-05-09T11:28:31.239Z,59.40
2023-05-09T11:31:11.603Z,59.50
2023-05-09T11:33:38.835Z,59.40
2023-05-09T11:36:25.628Z,59.40
2023-05-09T11:39:06.391Z,59.30
2023-05-09T11:41:43.872Z,59.20
2023-05-09T11:44:14.956Z,59.10
2023-05-09T11:46:42.118Z,59.10
2023-05-09T11:49:10.111Z,59.30
2023-05-09T11:51:38.651Z,59.10
2023-05-09T11:54:07.047Z,59.10
2023-05-09T11:56:38.503Z,59.10
2023-05-09T11:59:05.355Z,59.10
2023-05-09T12:01:32.181Z,59.00
2023-05-09T12:03:59.649Z,59.00
2023-05-09T12:06:26.412Z,59.00
2023-05-09T12:08:55.322Z,58.90
2023-05-09T12:11:21.988Z,58.90
2023-05-09T12:13:49.353Z,58.90
2023-05-09T12:16:16.964Z,58.90
2023-05-09T12:18:50.504Z,58.90
2023-05-09T12:21:21.692Z,58.80
2023-05-09T12:23:51.290Z,58.70
2023-05-09T12:26:22.100Z,58.70
2023-05-09T12:28:48.974Z,58.70
2023-05-09T12:31:16.209Z,58.70
2023-05-09T12:33:43.056Z,58.60
2023-05-09T12:36:13.235Z,58.60
2023-05-09T12:38:40.045Z,58.70
2023-05-09T12:41:13.013Z,58.60
2023-05-09T12:43:49.592Z,58.60
2023-05-09T12:46:20.225Z,58.60
2023-05-09T12:48:50.108Z,58.60
2023-05-09T12:51:21.254Z,58.60
2023-05-09T12:53:48.429Z,58.60
2023-05-09T12:56:19.152Z,58.60
2023-05-09T12:58:52.924Z,58.60
2023-05-09T13:01:20.439Z,58.60
2023-05-09T13:03:59.938Z,58.50
2023-05-09T13:06:26.845Z,58.50
2023-05-09T13:09:05.683Z,58.50
2023-05-09T13:11:32.442Z,58.60
2023-05-09T13:13:59.214Z,58.70
2023-05-09T13:16:26.093Z,58.60
2023-05-09T13:18:52.759Z,58.60
2023-05-09T13:21:20.199Z,58.60
2023-05-09T13:23:46.952Z,58.60
2023-05-09T13:26:13.668Z,58.60
2023-05-09T13:28:40.840Z,58.60
2023-05-09T13:31:08.061Z,58.60
2023-05-09T13:33:35.085Z,58.50
2023-05-09T13:36:01.857Z,58.50
2023-05-09T13:38:31.078Z,58.50
2023-05-09T13:40:58.051Z,58.50
2023-05-09T13:43:24.692Z,58.40
2023-05-09T13:45:51.508Z,58.50
2023-05-09T13:48:18.142Z,58.40
2023-05-09T13:50:45.910Z,58.40
2023-05-09T13:53:12.679Z,58.40
2023-05-09T13:55:39.290Z,58.40
2023-05-09T13:58:06.761Z,58.40
2023-05-09T14:00:33.608Z,58.40
2023-05-09T14:03:01.474Z,58.30
2023-05-09T14:05:28.200Z,58.30
2023-05-09T14:07:55.023Z,58.30
2023-05-09T14:10:22.281Z,58.40
2023-05-09T14:12:49.035Z,58.30
2023-05-09T14:15:16.390Z,58.30
2023-05-09T14:17:43.639Z,58.30
2023-05-09T14:20:13.523Z,58.30
2023-05-09T14:22:40.380Z,58.20
2023-05-09T14:25:07.867Z,58.30
2023-05-09T14:27:37.172Z,58.20
2023-05-09T14:30:04.496Z,58.20
2023-05-09T14:32:31.185Z,58.20
2023-05-09T14:34:57.862Z,58.20
2023-05-09T14:37:24.652Z,58.20
2023-05-09T14:39:52.219Z,58.20
2023-05-09T14:42:19.768Z,58.20
2023-05-09T14:44:47.441Z,58.20
2023-05-09T14:47:14.180Z,58.20
2023-05-09T14:49:41.382Z,58.20
2023-05-09T14:52:08.212Z,58.20
2023-05-09T14:54:34.975Z,58.20
2023-05-09T14:57:04.544Z,58.20
2023-05-09T14:59:31.632Z,58.20
2023-05-09T15:01:58.373Z,58.20
2023-05-09T15:04:28.361Z,58.20
2023-05-09T15:06:55.213Z,58.20
2023-05-09T15:09:22.526Z,58.20
2023-05-09T15:11:49.438Z,58.20
2023-05-09T15:14:16.782Z,58.20
2023-05-09T15:16:43.840Z,58.20
2023-05-09T15:19:10.549Z,58.20
2023-05-09T15:21:37.230Z,58.20
2023-05-09T15:24:04.459Z,58.20
2023-05-09T15:26:31.313Z,58.20
2023-05-09T15:28:58.239Z,58.10
2023-05-09T15:31:25.753Z,58.10
2023-05-09T15:33:52.574Z,58.10
2023-05-09T15:36:19.232Z,58.10
2023-05-09T15:38:49.370Z,58.10
2023-05-09T15:41:16.521Z,58.10
2023-05-09T15:43:43.172Z,58.10
2023-05-09T15:46:09.861Z,58.10
2023-05-09T15:48:36.510Z,58.00
2023-05-09T15:51:04.203Z,58.10
2023-05-09T15:53:31.229Z,58.10
2023-05-09T15:55:58.146Z,58.00
2023-05-09T15:58:25.149Z,58.00
2023-05-09T16:00:51.940Z,58.00
2023-05-09T16:03:19.099Z,58.00
2023-05-09T16:05:45.997Z,58.00
2023-05-09T16:08:12.739Z,58.00
2023-05-09T16:10:39.726Z,58.00
2023-05-09T16:13:06.931Z,58.00
2023-05-09T16:15:33.912Z,58.00
2023-05-09T16:18:00.635Z,58.00
2023-05-09T16:20:27.319Z,58.00
2023-05-09T16:22:53.996Z,58.00
2023-05-09T16:25:20.674Z,58.00
2023-05-09T16:27:47.376Z,58.00
2023-05-09T16:30:14.524Z,58.00
2023-05-09T16:32:41.576Z,58.00
2023-05-09T16:35:08.467Z,58.00
2023-05-09T16:37:35.654Z,58.00
2023-05-09T16:40:02.918Z,58.00
2023-05-09T16:42:29.773Z,58.00
2023-05-09T16:44:57.294Z,58.00
2023-05-09T16:47:24.104Z,58.10
2023-05-09T16:49:50.904Z,58.10
2023-05-09T16:52:17.614Z,58.10
2023-05-09T16:54:44.290Z,58.00
2023-05-09T16:57:10.906Z,58.00
2023-05-09T16:59:37.776Z,58.00
2023-05-09T17:02:04.540Z,58.00
2023-05-09T17:04:31.328Z,58.00
2023-05-09T17:06:58.164Z,58.00
2023-05-09T17:09:24.829Z,58.00
2023-05-09T17:11:51.958Z,58.00
2023-05-09T17:14:18.792Z,58.00
2023-05-09T17:16:45.574Z,58.00
2023-05-09T17:19:12.267Z,58.00
2023-05-09T17:21:41.528Z,58.00
2023-05-09T17:24:09.253Z,58.00
2023-05-09T17:26:35.919Z,57.90
2023-05-09T17:29:03.780Z,58.00
2023-05-09T17:31:31.309Z,58.00
2023-05-09T17:33:58.304Z,58.00
2023-05-09T17:36:25.764Z,57.90
2023-05-09T17:38:52.723Z,58.00
2023-05-09T17:41:19.458Z,58.00
2023-05-09T17:43:46.189Z,58.00
2023-05-09T17:46:14.895Z,58.00
2023-05-09T17:48:42.040Z,58.00
2023-05-09T17:51:08.711Z,58.00
2023-05-09T17:53:35.426Z,57.90
2023-05-09T17:56:02.033Z,58.00
2023-05-09T17:58:28.908Z,58.00
2023-05-09T18:00:55.944Z,57.90
2023-05-09T18:03:22.716Z,57.90
2023-05-09T18:05:49.781Z,57.90
2023-05-09T18:08:16.834Z,57.90
2023-05-09T18:10:43.806Z,57.90
2023-05-09T18:13:10.892Z,57.90
2023-05-09T18:15:38.551Z,57.90
2023-05-09T18:18:06.370Z,57.90
2023-05-09T18:20:33.745Z,57.90
2023-05-09T18:23:00.471Z,58.00
2023-05-09T18:25:27.251Z,57.90
2023-05-09T18:27:53.952Z,57.90
2023-05-09T18:30:21.983Z,57.90
2023-05-09T18:32:49.757Z,57.90
2023-05-09T18:35:16.419Z,57.90
2023-05-09T18:37:43.032Z,57.90
2023-05-09T18:40:14.795Z,57.90
2023-05-09T18:42:42.040Z,57.90
2023-05-09T18:45:10.017Z,57.90
2023-05-09T18:47:37.487Z,57.90
2023-05-09T18:50:05.323Z,57.90
2023-05-09T18:52:32.398Z,57.80
2023-05-09T18:54:59.165Z,57.90
2023-05-09T18:57:26.300Z,57.90
2023-05-09T18:59:52.967Z,57.90
2023-05-09T19:02:20.566Z,57.90
2023-05-09T19:04:48.185Z,57.90
2023-05-09T19:07:15.134Z,57.90
2023-05-09T19:09:42.088Z,57.80
2023-05-09T19:12:09.965Z,57.90
2023-05-09T19:14:37.943Z,57.80
2023-05-09T19:17:05.594Z,57.90
2023-05-09T19:19:32.518Z,57.90
2023-05-09T19:22:00.031Z,57.90
2023-05-09T19:24:26.711Z,57.80
2023-05-09T19:26:53.429Z,57.80
2023-05-09T19:29:20.066Z,57.90
2023-05-09T19:31:46.687Z,57.90
2023-05-09T19:34:14.138Z,57.90
2023-05-09T19:36:40.784Z,57.90
2023-05-09T19:39:09.002Z,57.90
2023-05-09T19:41:35.970Z,57.90
2023-05-09T19:44:02.806Z,57.90
2023-05-09T19:46:29.633Z,57.90
2023-05-09T19:48:56.402Z,57.90
2023-05-09T19:51:25.024Z,57.90
2023-05-09T19:53:51.795Z,57.80
2023-05-09T19:56:18.521Z,57.90
2023-05-09T19:58:49.497Z,57.90
2023-05-09T20:01:17.265Z,57.90
2023-05-09T20:03:46.573Z,57.90
2023-05-09T20:06:13.756Z,58.00
2023-05-09T20:08:40.380Z,57.90
2023-05-09T20:11:07.899Z,58.00
2023-05-09T20:13:34.610Z,57.90
2023-05-09T20:16:02.794Z,58.00
2023-05-09T20:18:33.239Z,57.90
2023-05-09T20:21:03.258Z,57.90
2023-05-09T20:23:29.945Z,57.90
2023-05-09T20:25:56.823Z,57.90
2023-05-09T20:28:23.444Z,57.90
2023-05-09T20:30:50.213Z,57.90
2023-05-09T20:33:16.995Z,58.00
2023-05-09T20:35:43.980Z,57.90
2023-05-09T20:38:11.084Z,58.00
2023-05-09T20:40:37.888Z,57.90
2023-05-09T20:43:04.693Z,57.90
2023-05-09T20:45:31.518Z,57.90
2023-05-09T20:47:59.062Z,57.90
2023-05-09T20:50:25.843Z,57.90
2023-05-09T20:52:52.517Z,57.90
2023-05-09T20:55:19.310Z,57.90
2023-05-09T20:57:46.031Z,57.90
2023-05-09T21:00:13.186Z,57.80
2023-05-09T21:02:40.127Z,57.90
2023-05-09T21:05:07.220Z,57.90
2023-05-09T21:07:33.812Z,57.90
2023-05-09T21:10:00.523Z,58.00
2023-05-09T21:12:27.396Z,58.00
2023-05-09T21:14:53.987Z,58.00
2023-05-09T21:17:20.627Z,58.10
2023-05-09T21:19:51.442Z,58.10
2023-05-09T21:22:18.282Z,58.20
2023-05-09T21:24:44.857Z,58.20
2023-05-09T21:27:11.466Z,58.20
2023-05-09T21:29:38.034Z,58.20
2023-05-09T21:32:04.714Z,58.30
2023-05-09T21:34:31.262Z,58.30
2023-05-09T21:36:57.837Z,58.20
2023-05-09T21:39:24.429Z,58.30
2023-05-09T21:41:50.998Z,58.40
2023-05-09T21:44:17.730Z,58.60
2023-05-09T21:46:46.294Z,58.60
2023-05-09T21:49:16.607Z,58.70
2023-05-09T21:51:43.366Z,58.60
2023-05-09T21:54:10.968Z,58.70
2023-05-09T21:56:38.092Z,58.80
2023-05-09T21:59:04.702Z,58.70
2023-05-09T22:01:31.434Z,58.90
2023-05-09T22:03:58.706Z,58.90
2023-05-09T22:06:25.534Z,58.90
2023-05-09T22:08:52.292Z,59.00
2023-05-09T22:11:19.008Z,59.00
2023-05-09T22:13:45.630Z,59.10
2023-05-09T22:16:12.695Z,59.10
2023-05-09T22:18:39.297Z,59.20
2023-05-09T22:21:05.968Z,59.30
2023-05-09T22:23:32.593Z,59.40
2023-05-09T22:25:59.207Z,59.30
2023-05-09T22:28:25.875Z,59.40
2023-05-09T22:30:52.534Z,59.50
2023-05-09T22:33:19.133Z,59.50
2023-05-09T22:35:45.865Z,59.60
2023-05-09T22:38:12.919Z,59.70
2023-05-09T22:40:39.585Z,59.60
2023-05-09T22:43:06.164Z,59.70
2023-05-09T22:45:32.706Z,59.60
2023-05-09T22:47:59.402Z,59.80
2023-05-09T22:50:25.994Z,59.80
2023-05-09T22:52:52.776Z,59.80
2023-05-09T22:55:19.385Z,59.80
2023-05-09T22:57:46.075Z,59.80
2023-05-09T23:00:13.523Z,59.80
2023-05-09T23:02:40.533Z,59.90
2023-05-09T23:05:08.769Z,59.90
2023-05-09T23:07:35.353Z,59.90
2023-05-09T23:10:02.007Z,60.00
2023-05-09T23:12:28.916Z,59.90
2023-05-09T23:14:55.516Z,60.00
2023-05-09T23:17:22.993Z,60.10
2023-05-09T23:19:49.694Z,60.10
2023-05-09T23:22:16.568Z,60.10
2023-05-09T23:24:43.221Z,60.10
2023-05-09T23:27:09.767Z,60.20
2023-05-09T23:29:36.399Z,60.10
2023-05-09T23:32:03.149Z,60.20
2023-05-09T23:34:30.700Z,60.10
2023-05-09T23:36:57.254Z,60.20
2023-05-09T23:39:23.921Z,60.20
2023-05-09T23:41:50.444Z,60.20
2023-05-09T23:44:17.014Z,60.10
2023-05-09T23:46:43.679Z,60.20
2023-05-09T23:49:10.307Z,60.20
2023-05-09T23:51:36.828Z,60.10
2023-05-09T23:54:03.485Z,60.20
2023-05-09T23:56:31.152Z,60.20
2023-05-09T23:58:57.703Z,60.20
